sensor_id;sensor_type;location;lat;lon;timestamp;temperature;humidity
78479;SHT31;67769;51.972;5.668;2023-07-31T00:00:21;19.0;72.7
78479;SHT31;67769;51.972;5.668;2023-07-31T00:02:52;19.0;72.1
78479;SHT31;67769;51.972;5.668;2023-07-31T00:05:22;19.0;72.2
78479;SHT31;67769;51.972;5.668;2023-07-31T00:07:52;19.0;72.3
78479;SHT31;67769;51.972;5.668;2023-07-31T00:10:22;19.1;71.9
78479;SHT31;67769;51.972;5.668;2023-07-31T00:12:52;19.1;71.8
78479;SHT31;67769;51.972;5.668;2023-07-31T00:15:21;19.1;72.1
78479;SHT31;67769;51.972;5.668;2023-07-31T00:17:51;19.1;72.3
78479;SHT31;67769;51.972;5.668;2023-07-31T00:20:23;19.1;72.4
78479;SHT31;67769;51.972;5.668;2023-07-31T00:22:53;19.1;72.4
78479;SHT31;67769;51.972;5.668;2023-07-31T00:25:25;19.1;72.9
78479;SHT31;67769;51.972;5.668;2023-07-31T00:27:55;19.1;73.0
78479;SHT31;67769;51.972;5.668;2023-07-31T00:30:25;19.1;73.2
78479;SHT31;67769;51.972;5.668;2023-07-31T00:32:56;19.1;73.8
78479;SHT31;67769;51.972;5.668;2023-07-31T00:35:26;19.1;74.3
78479;SHT31;67769;51.972;5.668;2023-07-31T00:37:56;19.1;74.5
78479;SHT31;67769;51.972;5.668;2023-07-31T00:40:27;19.1;74.6
78479;SHT31;67769;51.972;5.668;2023-07-31T00:42:57;19.1;74.8
78479;SHT31;67769;51.972;5.668;2023-07-31T00:45:26;19.2;75.0
78479;SHT31;67769;51.972;5.668;2023-07-31T00:47:56;19.2;75.1
78479;SHT31;67769;51.972;5.668;2023-07-31T00:50:27;19.2;75.1
78479;SHT31;67769;51.972;5.668;2023-07-31T00:52:58;19.3;75.3
78479;SHT31;67769;51.972;5.668;2023-07-31T00:55:28;19.3;75.3
78479;SHT31;67769;51.972;5.668;2023-07-31T00:57:58;19.4;75.3
78479;SHT31;67769;51.972;5.668;2023-07-31T01:00:27;19.4;75.1
78479;SHT31;67769;51.972;5.668;2023-07-31T01:02:58;19.5;74.9
78479;SHT31;67769;51.972;5.668;2023-07-31T01:05:48;19.5;75.0
78479;SHT31;67769;51.972;5.668;2023-07-31T01:08:18;19.5;74.8
78479;SHT31;67769;51.972;5.668;2023-07-31T01:10:54;19.6;74.7
78479;SHT31;67769;51.972;5.668;2023-07-31T01:13:25;19.6;74.5
78479;SHT31;67769;51.972;5.668;2023-07-31T01:15:55;19.7;74.4
78479;SHT31;67769;51.972;5.668;2023-07-31T01:18:25;19.7;74.0
78479;SHT31;67769;51.972;5.668;2023-07-31T01:21:03;19.7;74.0
78479;SHT31;67769;51.972;5.668;2023-07-31T01:24:28;19.8;73.8
78479;SHT31;67769;51.972;5.668;2023-07-31T01:27:06;19.8;73.5
78479;SHT31;67769;51.972;5.668;2023-07-31T01:29:45;19.8;73.1
78479;SHT31;67769;51.972;5.668;2023-07-31T01:32:18;19.9;73.0
78479;SHT31;67769;51.972;5.668;2023-07-31T01:34:49;19.9;73.0
78479;SHT31;67769;51.972;5.668;2023-07-31T01:37:18;19.9;72.9
78479;SHT31;67769;51.972;5.668;2023-07-31T01:39:48;19.9;72.7
78479;SHT31;67769;51.972;5.668;2023-07-31T01:42:18;19.9;72.8
78479;SHT31;67769;51.972;5.668;2023-07-31T01:44:47;20.0;72.6
78479;SHT31;67769;51.972;5.668;2023-07-31T01:47:17;20.0;72.5
78479;SHT31;67769;51.972;5.668;2023-07-31T01:49:47;20.0;72.4
78479;SHT31;67769;51.972;5.668;2023-07-31T01:52:16;20.0;72.3
78479;SHT31;67769;51.972;5.668;2023-07-31T01:54:46;20.0;72.3
78479;SHT31;67769;51.972;5.668;2023-07-31T01:57:15;20.0;72.2
78479;SHT31;67769;51.972;5.668;2023-07-31T01:59:45;20.0;72.1
78479;SHT31;67769;51.972;5.668;2023-07-31T02:02:16;20.0;72.2
78479;SHT31;67769;51.972;5.668;2023-07-31T02:04:46;20.0;72.2
78479;SHT31;67769;51.972;5.668;2023-07-31T02:07:16;20.0;72.4
78479;SHT31;67769;51.972;5.668;2023-07-31T02:09:45;20.0;72.5
78479;SHT31;67769;51.972;5.668;2023-07-31T02:12:15;20.0;72.7
78479;SHT31;67769;51.972;5.668;2023-07-31T02:14:45;20.0;72.4
78479;SHT31;67769;51.972;5.668;2023-07-31T02:17:14;20.0;72.5
78479;SHT31;67769;51.972;5.668;2023-07-31T02:19:44;20.0;72.6
78479;SHT31;67769;51.972;5.668;2023-07-31T02:22:14;20.0;72.6
78479;SHT31;67769;51.972;5.668;2023-07-31T02:24:45;20.0;72.6
78479;SHT31;67769;51.972;5.668;2023-07-31T02:27:15;20.0;72.6
78479;SHT31;67769;51.972;5.668;2023-07-31T02:29:45;20.0;72.5
78479;SHT31;67769;51.972;5.668;2023-07-31T02:32:14;20.0;72.7
78479;SHT31;67769;51.972;5.668;2023-07-31T02:34:44;20.0;72.7
78479;SHT31;67769;51.972;5.668;2023-07-31T02:37:13;20.0;72.3
78479;SHT31;67769;51.972;5.668;2023-07-31T02:39:43;20.0;71.9
78479;SHT31;67769;51.972;5.668;2023-07-31T02:42:12;20.0;71.7
78479;SHT31;67769;51.972;5.668;2023-07-31T02:44:42;20.0;71.8
78479;SHT31;67769;51.972;5.668;2023-07-31T02:47:12;20.0;72.2
78479;SHT31;67769;51.972;5.668;2023-07-31T02:49:43;20.0;72.1
78479;SHT31;67769;51.972;5.668;2023-07-31T02:52:13;20.0;72.0
78479;SHT31;67769;51.972;5.668;2023-07-31T02:54:43;20.0;71.5
78479;SHT31;67769;51.972;5.668;2023-07-31T02:57:12;20.0;71.4
78479;SHT31;67769;51.972;5.668;2023-07-31T02:59:43;20.0;71.4
78479;SHT31;67769;51.972;5.668;2023-07-31T03:02:13;20.0;71.0
78479;SHT31;67769;51.972;5.668;2023-07-31T03:04:42;20.0;71.4
78479;SHT31;67769;51.972;5.668;2023-07-31T03:07:12;20.0;71.2
78479;SHT31;67769;51.972;5.668;2023-07-31T03:09:42;20.0;71.1
78479;SHT31;67769;51.972;5.668;2023-07-31T03:12:13;20.0;71.1
78479;SHT31;67769;51.972;5.668;2023-07-31T03:14:45;20.0;70.7
78479;SHT31;67769;51.972;5.668;2023-07-31T03:17:14;19.9;71.3
78479;SHT31;67769;51.972;5.668;2023-07-31T03:19:44;19.9;71.2
78479;SHT31;67769;51.972;5.668;2023-07-31T03:22:14;19.9;71.0
78479;SHT31;67769;51.972;5.668;2023-07-31T03:24:43;19.9;70.4
78479;SHT31;67769;51.972;5.668;2023-07-31T03:27:15;19.9;70.3
78479;SHT31;67769;51.972;5.668;2023-07-31T03:29:44;19.9;70.8
78479;SHT31;67769;51.972;5.668;2023-07-31T03:32:14;19.9;70.3
78479;SHT31;67769;51.972;5.668;2023-07-31T03:34:44;19.9;70.5
78479;SHT31;67769;51.972;5.668;2023-07-31T03:37:15;19.9;70.3
78479;SHT31;67769;51.972;5.668;2023-07-31T03:39:45;19.9;70.5
78479;SHT31;67769;51.972;5.668;2023-07-31T03:42:14;19.9;70.3
78479;SHT31;67769;51.972;5.668;2023-07-31T03:44:44;19.9;70.3
78479;SHT31;67769;51.972;5.668;2023-07-31T03:47:13;19.9;70.0
78479;SHT31;67769;51.972;5.668;2023-07-31T03:49:43;19.9;70.6
78479;SHT31;67769;51.972;5.668;2023-07-31T03:52:13;19.9;70.3
78479;SHT31;67769;51.972;5.668;2023-07-31T03:54:42;19.9;69.9
78479;SHT31;67769;51.972;5.668;2023-07-31T03:57:13;19.9;69.7
78479;SHT31;67769;51.972;5.668;2023-07-31T03:59:43;19.9;69.8
78479;SHT31;67769;51.972;5.668;2023-07-31T04:02:12;19.9;70.6
78479;SHT31;67769;51.972;5.668;2023-07-31T04:04:43;19.9;69.4
78479;SHT31;67769;51.972;5.668;2023-07-31T04:07:13;19.9;69.3
78479;SHT31;67769;51.972;5.668;2023-07-31T04:09:42;19.9;69.7
78479;SHT31;67769;51.972;5.668;2023-07-31T04:12:14;19.9;70.1
78479;SHT31;67769;51.972;5.668;2023-07-31T04:14:44;19.9;69.9
78479;SHT31;67769;51.972;5.668;2023-07-31T04:17:13;19.9;69.0
78479;SHT31;67769;51.972;5.668;2023-07-31T04:19:43;19.9;69.7
78479;SHT31;67769;51.972;5.668;2023-07-31T04:22:12;19.9;69.7
78479;SHT31;67769;51.972;5.668;2023-07-31T04:24:42;19.9;70.0
78479;SHT31;67769;51.972;5.668;2023-07-31T04:27:12;19.9;69.7
78479;SHT31;67769;51.972;5.668;2023-07-31T04:29:41;19.9;69.7
78479;SHT31;67769;51.972;5.668;2023-07-31T04:32:13;19.9;69.1
78479;SHT31;67769;51.972;5.668;2023-07-31T04:34:44;19.9;69.1
78479;SHT31;67769;51.972;5.668;2023-07-31T04:37:13;19.9;68.7
78479;SHT31;67769;51.972;5.668;2023-07-31T04:39:43;19.9;69.2
78479;SHT31;67769;51.972;5.668;2023-07-31T04:42:12;19.9;69.7
78479;SHT31;67769;51.972;5.668;2023-07-31T04:44:42;19.9;68.5
78479;SHT31;67769;51.972;5.668;2023-07-31T04:47:12;19.9;68.3
78479;SHT31;67769;51.972;5.668;2023-07-31T04:49:41;19.9;68.8
78479;SHT31;67769;51.972;5.668;2023-07-31T04:52:13;19.9;68.3
78479;SHT31;67769;51.972;5.668;2023-07-31T04:54:42;19.9;68.6
78479;SHT31;67769;51.972;5.668;2023-07-31T04:57:12;19.9;69.5
78479;SHT31;67769;51.972;5.668;2023-07-31T04:59:41;19.9;69.2
78479;SHT31;67769;51.972;5.668;2023-07-31T05:02:12;19.9;69.3
78479;SHT31;67769;51.972;5.668;2023-07-31T05:04:41;19.9;68.8
78479;SHT31;67769;51.972;5.668;2023-07-31T05:07:11;19.9;69.1
78479;SHT31;67769;51.972;5.668;2023-07-31T05:09:41;19.8;69.2
78479;SHT31;67769;51.972;5.668;2023-07-31T05:12:10;19.8;69.2
78479;SHT31;67769;51.972;5.668;2023-07-31T05:14:40;19.8;68.8
78479;SHT31;67769;51.972;5.668;2023-07-31T05:17:09;19.8;69.2
78479;SHT31;67769;51.972;5.668;2023-07-31T05:19:39;19.8;69.3
78479;SHT31;67769;51.972;5.668;2023-07-31T05:22:09;19.8;70.0
78479;SHT31;67769;51.972;5.668;2023-07-31T05:24:38;19.8;69.8
78479;SHT31;67769;51.972;5.668;2023-07-31T05:27:08;19.8;69.8
78479;SHT31;67769;51.972;5.668;2023-07-31T05:29:40;19.8;70.2
78479;SHT31;67769;51.972;5.668;2023-07-31T05:32:10;19.8;70.4
78479;SHT31;67769;51.972;5.668;2023-07-31T05:34:40;19.8;70.4
78479;SHT31;67769;51.972;5.668;2023-07-31T05:37:10;19.7;70.3
78479;SHT31;67769;51.972;5.668;2023-07-31T05:39:39;19.7;71.1
78479;SHT31;67769;51.972;5.668;2023-07-31T05:42:09;19.7;71.0
78479;SHT31;67769;51.972;5.668;2023-07-31T05:44:39;19.7;71.3
78479;SHT31;67769;51.972;5.668;2023-07-31T05:47:08;19.7;71.5
78479;SHT31;67769;51.972;5.668;2023-07-31T05:49:38;19.6;71.4
78479;SHT31;67769;51.972;5.668;2023-07-31T05:52:08;19.6;71.8
78479;SHT31;67769;51.972;5.668;2023-07-31T05:54:38;19.6;71.7
78479;SHT31;67769;51.972;5.668;2023-07-31T05:57:10;19.6;72.1
78479;SHT31;67769;51.972;5.668;2023-07-31T05:59:39;19.6;72.2
78479;SHT31;67769;51.972;5.668;2023-07-31T06:02:09;19.6;72.4
78479;SHT31;67769;51.972;5.668;2023-07-31T06:04:38;19.6;72.3
78479;SHT31;67769;51.972;5.668;2023-07-31T06:07:08;19.6;72.5
78479;SHT31;67769;51.972;5.668;2023-07-31T06:09:38;19.5;72.8
78479;SHT31;67769;51.972;5.668;2023-07-31T06:12:08;19.5;72.8
78479;SHT31;67769;51.972;5.668;2023-07-31T06:14:38;19.5;72.7
78479;SHT31;67769;51.972;5.668;2023-07-31T06:17:08;19.5;73.0
78479;SHT31;67769;51.972;5.668;2023-07-31T06:19:38;19.5;73.3
78479;SHT31;67769;51.972;5.668;2023-07-31T06:22:07;19.5;73.7
78479;SHT31;67769;51.972;5.668;2023-07-31T06:24:37;19.5;73.8
78479;SHT31;67769;51.972;5.668;2023-07-31T06:27:07;19.5;73.8
78479;SHT31;67769;51.972;5.668;2023-07-31T06:29:39;19.5;74.0
78479;SHT31;67769;51.972;5.668;2023-07-31T06:32:10;19.5;74.1
78479;SHT31;67769;51.972;5.668;2023-07-31T06:34:40;19.5;74.4
78479;SHT31;67769;51.972;5.668;2023-07-31T06:37:09;19.6;74.0
78479;SHT31;67769;51.972;5.668;2023-07-31T06:39:41;19.6;74.2
78479;SHT31;67769;51.972;5.668;2023-07-31T06:42:10;19.6;74.3
78479;SHT31;67769;51.972;5.668;2023-07-31T06:44:40;19.6;74.2
78479;SHT31;67769;51.972;5.668;2023-07-31T06:47:09;19.6;74.3
78479;SHT31;67769;51.972;5.668;2023-07-31T06:49:39;19.6;74.4
78479;SHT31;67769;51.972;5.668;2023-07-31T06:52:09;19.6;74.4
78479;SHT31;67769;51.972;5.668;2023-07-31T06:54:39;19.6;74.3
78479;SHT31;67769;51.972;5.668;2023-07-31T06:57:09;19.6;74.2
78479;SHT31;67769;51.972;5.668;2023-07-31T06:59:38;19.6;74.3
78479;SHT31;67769;51.972;5.668;2023-07-31T07:02:08;19.6;74.6
78479;SHT31;67769;51.972;5.668;2023-07-31T07:04:37;19.6;74.9
78479;SHT31;67769;51.972;5.668;2023-07-31T07:07:07;19.6;75.2
78479;SHT31;67769;51.972;5.668;2023-07-31T07:09:36;19.6;75.3
78479;SHT31;67769;51.972;5.668;2023-07-31T07:12:07;19.6;75.7
78479;SHT31;67769;51.972;5.668;2023-07-31T07:14:37;19.7;75.5
78479;SHT31;67769;51.972;5.668;2023-07-31T07:17:06;19.7;75.7
78479;SHT31;67769;51.972;5.668;2023-07-31T07:19:39;19.7;75.7
78479;SHT31;67769;51.972;5.668;2023-07-31T07:22:11;19.7;75.6
78479;SHT31;67769;51.972;5.668;2023-07-31T07:24:41;19.8;75.3
78479;SHT31;67769;51.972;5.668;2023-07-31T07:27:11;19.8;75.1
78479;SHT31;67769;51.972;5.668;2023-07-31T07:29:40;19.8;75.1
78479;SHT31;67769;51.972;5.668;2023-07-31T07:32:10;19.8;75.1
78479;SHT31;67769;51.972;5.668;2023-07-31T07:34:40;19.8;75.0
78479;SHT31;67769;51.972;5.668;2023-07-31T07:37:09;19.8;74.8
78479;SHT31;67769;51.972;5.668;2023-07-31T07:39:39;19.8;74.8
78479;SHT31;67769;51.972;5.668;2023-07-31T07:42:09;19.8;74.8
78479;SHT31;67769;51.972;5.668;2023-07-31T07:44:39;19.8;74.9
78479;SHT31;67769;51.972;5.668;2023-07-31T07:47:08;19.8;75.2
78479;SHT31;67769;51.972;5.668;2023-07-31T07:49:38;19.8;75.2
78479;SHT31;67769;51.972;5.668;2023-07-31T07:52:08;19.8;75.1
78479;SHT31;67769;51.972;5.668;2023-07-31T07:54:37;19.9;75.2
78479;SHT31;67769;51.972;5.668;2023-07-31T07:57:07;19.9;75.2
78479;SHT31;67769;51.972;5.668;2023-07-31T07:59:36;19.9;75.2
78479;SHT31;67769;51.972;5.668;2023-07-31T08:02:06;19.9;75.4
78479;SHT31;67769;51.972;5.668;2023-07-31T08:04:35;19.9;75.3
78479;SHT31;67769;51.972;5.668;2023-07-31T08:07:05;19.9;75.2
78479;SHT31;67769;51.972;5.668;2023-07-31T08:09:35;19.9;75.3
78479;SHT31;67769;51.972;5.668;2023-07-31T08:12:05;19.9;75.6
78479;SHT31;67769;51.972;5.668;2023-07-31T08:14:34;20.0;75.6
78479;SHT31;67769;51.972;5.668;2023-07-31T08:17:07;20.0;75.4
78479;SHT31;67769;51.972;5.668;2023-07-31T08:19:38;20.0;75.4
78479;SHT31;67769;51.972;5.668;2023-07-31T08:22:10;20.0;75.3
78479;SHT31;67769;51.972;5.668;2023-07-31T08:24:39;20.0;75.6
78479;SHT31;67769;51.972;5.668;2023-07-31T08:27:11;20.0;75.9
78479;SHT31;67769;51.972;5.668;2023-07-31T08:29:40;20.1;75.5
78479;SHT31;67769;51.972;5.668;2023-07-31T08:32:12;20.1;75.5
78479;SHT31;67769;51.972;5.668;2023-07-31T08:34:41;20.1;75.7
78479;SHT31;67769;51.972;5.668;2023-07-31T08:37:11;20.1;75.7
78479;SHT31;67769;51.972;5.668;2023-07-31T08:39:41;20.1;76.1
78479;SHT31;67769;51.972;5.668;2023-07-31T08:42:17;20.2;76.0
78479;SHT31;67769;51.972;5.668;2023-07-31T08:44:47;20.2;76.1
78479;SHT31;67769;51.972;5.668;2023-07-31T08:47:19;20.2;75.8
78479;SHT31;67769;51.972;5.668;2023-07-31T08:49:53;20.3;75.7
78479;SHT31;67769;51.972;5.668;2023-07-31T08:52:24;20.3;75.1
78479;SHT31;67769;51.972;5.668;2023-07-31T08:54:54;20.3;75.2
78479;SHT31;67769;51.972;5.668;2023-07-31T08:57:24;20.4;75.4
78479;SHT31;67769;51.972;5.668;2023-07-31T08:59:56;20.4;75.2
78479;SHT31;67769;51.972;5.668;2023-07-31T09:02:41;20.4;75.0
78479;SHT31;67769;51.972;5.668;2023-07-31T09:05:11;20.4;75.1
78479;SHT31;67769;51.972;5.668;2023-07-31T09:07:44;20.4;74.9
78479;SHT31;67769;51.972;5.668;2023-07-31T09:10:15;20.4;75.1
78479;SHT31;67769;51.972;5.668;2023-07-31T09:12:46;20.4;75.1
78479;SHT31;67769;51.972;5.668;2023-07-31T09:15:16;20.5;74.8
78479;SHT31;67769;51.972;5.668;2023-07-31T09:17:46;20.5;74.9
78479;SHT31;67769;51.972;5.668;2023-07-31T09:20:17;20.5;74.7
78479;SHT31;67769;51.972;5.668;2023-07-31T09:22:49;20.5;74.8
78479;SHT31;67769;51.972;5.668;2023-07-31T09:25:21;20.5;74.7
78479;SHT31;67769;51.972;5.668;2023-07-31T09:27:53;20.5;74.7
78479;SHT31;67769;51.972;5.668;2023-07-31T09:30:23;20.5;74.3
78479;SHT31;67769;51.972;5.668;2023-07-31T09:33:03;20.5;74.3
78479;SHT31;67769;51.972;5.668;2023-07-31T09:35:34;20.5;74.1
78479;SHT31;67769;51.972;5.668;2023-07-31T09:38:06;20.5;74.6
78479;SHT31;67769;51.972;5.668;2023-07-31T09:40:38;20.5;74.3
78479;SHT31;67769;51.972;5.668;2023-07-31T09:43:10;20.5;74.6
78479;SHT31;67769;51.972;5.668;2023-07-31T09:45:40;20.5;75.5
78479;SHT31;67769;51.972;5.668;2023-07-31T09:48:12;20.5;74.8
78479;SHT31;67769;51.972;5.668;2023-07-31T09:50:45;20.6;75.3
78479;SHT31;67769;51.972;5.668;2023-07-31T09:53:16;20.6;74.8
78479;SHT31;67769;51.972;5.668;2023-07-31T09:55:46;20.6;75.5
78479;SHT31;67769;51.972;5.668;2023-07-31T09:58:15;20.7;74.0
78479;SHT31;67769;51.972;5.668;2023-07-31T10:00:47;20.7;74.3
78479;SHT31;67769;51.972;5.668;2023-07-31T10:03:18;20.7;74.3
78479;SHT31;67769;51.972;5.668;2023-07-31T10:05:50;20.7;74.2
78479;SHT31;67769;51.972;5.668;2023-07-31T10:08:26;20.8;73.8
78479;SHT31;67769;51.972;5.668;2023-07-31T10:10:59;20.8;74.0
78479;SHT31;67769;51.972;5.668;2023-07-31T10:13:30;20.8;73.8
78479;SHT31;67769;51.972;5.668;2023-07-31T10:16:00;20.8;74.1
78479;SHT31;67769;51.972;5.668;2023-07-31T10:18:31;20.8;74.1
78479;SHT31;67769;51.972;5.668;2023-07-31T10:21:02;20.9;74.3
78479;SHT31;67769;51.972;5.668;2023-07-31T10:23:32;20.9;73.5
78479;SHT31;67769;51.972;5.668;2023-07-31T10:26:03;20.9;73.3
78479;SHT31;67769;51.972;5.668;2023-07-31T10:28:34;20.9;73.9
78479;SHT31;67769;51.972;5.668;2023-07-31T10:31:06;20.9;73.7
78479;SHT31;67769;51.972;5.668;2023-07-31T10:33:37;20.9;73.8
78479;SHT31;67769;51.972;5.668;2023-07-31T10:36:17;21.0;74.1
78479;SHT31;67769;51.972;5.668;2023-07-31T10:38:48;21.0;74.3
78479;SHT31;67769;51.972;5.668;2023-07-31T10:41:21;21.0;74.1
78479;SHT31;67769;51.972;5.668;2023-07-31T10:43:57;21.0;73.7
78479;SHT31;67769;51.972;5.668;2023-07-31T10:46:28;21.1;73.7
78479;SHT31;67769;51.972;5.668;2023-07-31T10:49:02;21.1;73.6
78479;SHT31;67769;51.972;5.668;2023-07-31T10:51:36;21.1;74.0
78479;SHT31;67769;51.972;5.668;2023-07-31T10:54:13;21.1;73.7
78479;SHT31;67769;51.972;5.668;2023-07-31T10:56:47;21.2;73.8
78479;SHT31;67769;51.972;5.668;2023-07-31T10:59:28;21.2;73.7
78479;SHT31;67769;51.972;5.668;2023-07-31T11:02:04;21.2;73.4
78479;SHT31;67769;51.972;5.668;2023-07-31T11:04:35;21.2;73.6
78479;SHT31;67769;51.972;5.668;2023-07-31T11:07:05;21.3;73.7
78479;SHT31;67769;51.972;5.668;2023-07-31T11:09:38;21.3;73.5
78479;SHT31;67769;51.972;5.668;2023-07-31T11:12:08;21.3;73.7
78479;SHT31;67769;51.972;5.668;2023-07-31T11:14:39;21.3;73.7
78479;SHT31;67769;51.972;5.668;2023-07-31T11:17:09;21.3;73.7
78479;SHT31;67769;51.972;5.668;2023-07-31T11:19:38;21.3;73.9
78479;SHT31;67769;51.972;5.668;2023-07-31T11:22:08;21.4;74.1
78479;SHT31;67769;51.972;5.668;2023-07-31T11:24:38;21.4;74.1
78479;SHT31;67769;51.972;5.668;2023-07-31T11:27:08;21.4;74.0
78479;SHT31;67769;51.972;5.668;2023-07-31T11:29:38;21.4;73.9
78479;SHT31;67769;51.972;5.668;2023-07-31T11:32:17;21.4;73.3
78479;SHT31;67769;51.972;5.668;2023-07-31T11:34:53;21.4;73.5
78479;SHT31;67769;51.972;5.668;2023-07-31T11:37:23;21.5;73.3
78479;SHT31;67769;51.972;5.668;2023-07-31T11:40:02;21.5;73.6
78479;SHT31;67769;51.972;5.668;2023-07-31T11:42:32;21.5;73.4
78479;SHT31;67769;51.972;5.668;2023-07-31T11:45:04;21.5;73.7
78479;SHT31;67769;51.972;5.668;2023-07-31T11:47:35;21.5;73.4
78479;SHT31;67769;51.972;5.668;2023-07-31T11:50:10;21.6;73.6
78479;SHT31;67769;51.972;5.668;2023-07-31T11:52:45;21.6;73.0
78479;SHT31;67769;51.972;5.668;2023-07-31T11:55:18;21.6;72.8
78479;SHT31;67769;51.972;5.668;2023-07-31T11:57:48;21.7;72.6
78479;SHT31;67769;51.972;5.668;2023-07-31T12:00:21;21.7;72.0
78479;SHT31;67769;51.972;5.668;2023-07-31T12:02:53;21.7;72.5
78479;SHT31;67769;51.972;5.668;2023-07-31T12:05:23;21.7;71.7
78479;SHT31;67769;51.972;5.668;2023-07-31T12:07:55;21.7;72.4
78479;SHT31;67769;51.972;5.668;2023-07-31T12:10:30;21.8;72.4
78479;SHT31;67769;51.972;5.668;2023-07-31T12:13:02;21.8;72.3
78479;SHT31;67769;51.972;5.668;2023-07-31T12:15:38;21.8;72.4
78479;SHT31;67769;51.972;5.668;2023-07-31T12:18:10;21.8;71.5
78479;SHT31;67769;51.972;5.668;2023-07-31T12:20:46;21.9;71.3
78479;SHT31;67769;51.972;5.668;2023-07-31T12:23:18;21.9;72.0
78479;SHT31;67769;51.972;5.668;2023-07-31T12:26:02;21.9;71.8
78479;SHT31;67769;51.972;5.668;2023-07-31T12:28:37;21.9;71.5
78479;SHT31;67769;51.972;5.668;2023-07-31T12:31:09;21.9;71.8
78479;SHT31;67769;51.972;5.668;2023-07-31T12:33:41;21.9;71.2
78479;SHT31;67769;51.972;5.668;2023-07-31T12:36:12;21.9;71.4
78479;SHT31;67769;51.972;5.668;2023-07-31T12:38:43;21.9;72.0
78479;SHT31;67769;51.972;5.668;2023-07-31T12:41:13;21.9;72.0
78479;SHT31;67769;51.972;5.668;2023-07-31T12:43:46;21.9;72.7
78479;SHT31;67769;51.972;5.668;2023-07-31T12:46:18;21.9;72.4
78479;SHT31;67769;51.972;5.668;2023-07-31T12:48:47;21.9;72.9
78479;SHT31;67769;51.972;5.668;2023-07-31T12:51:17;21.9;72.4
78479;SHT31;67769;51.972;5.668;2023-07-31T12:53:46;21.9;73.2
78479;SHT31;67769;51.972;5.668;2023-07-31T12:56:16;21.9;72.7
78479;SHT31;67769;51.972;5.668;2023-07-31T12:58:47;21.9;73.1
78479;SHT31;67769;51.972;5.668;2023-07-31T13:01:16;22.0;72.8
78479;SHT31;67769;51.972;5.668;2023-07-31T13:03:46;22.0;72.5
78479;SHT31;67769;51.972;5.668;2023-07-31T13:06:15;22.0;72.2
78479;SHT31;67769;51.972;5.668;2023-07-31T13:08:45;22.0;72.0
78479;SHT31;67769;51.972;5.668;2023-07-31T13:11:15;22.0;71.2
78479;SHT31;67769;51.972;5.668;2023-07-31T13:13:44;22.0;71.5
78479;SHT31;67769;51.972;5.668;2023-07-31T13:16:14;22.0;71.5
78479;SHT31;67769;51.972;5.668;2023-07-31T13:18:43;22.0;71.0
78479;SHT31;67769;51.972;5.668;2023-07-31T13:21:13;21.9;72.4
78479;SHT31;67769;51.972;5.668;2023-07-31T13:23:42;21.9;72.1
78479;SHT31;67769;51.972;5.668;2023-07-31T13:26:12;21.9;72.0
78479;SHT31;67769;51.972;5.668;2023-07-31T13:28:41;21.9;72.3
78479;SHT31;67769;51.972;5.668;2023-07-31T13:31:11;21.9;72.3
78479;SHT31;67769;51.972;5.668;2023-07-31T13:33:40;21.9;71.8
78479;SHT31;67769;51.972;5.668;2023-07-31T13:36:10;21.9;71.5
78479;SHT31;67769;51.972;5.668;2023-07-31T13:38:41;21.9;72.1
78479;SHT31;67769;51.972;5.668;2023-07-31T13:41:11;21.9;72.0
78479;SHT31;67769;51.972;5.668;2023-07-31T13:43:40;21.9;72.0
78479;SHT31;67769;51.972;5.668;2023-07-31T13:46:10;21.9;72.4
78479;SHT31;67769;51.972;5.668;2023-07-31T13:48:40;21.9;72.0
78479;SHT31;67769;51.972;5.668;2023-07-31T13:51:10;21.9;72.0
78479;SHT31;67769;51.972;5.668;2023-07-31T13:53:39;21.9;72.5
78479;SHT31;67769;51.972;5.668;2023-07-31T13:56:09;21.8;73.2
78479;SHT31;67769;51.972;5.668;2023-07-31T13:58:39;21.8;73.2
78479;SHT31;67769;51.972;5.668;2023-07-31T14:01:08;21.8;72.9
78479;SHT31;67769;51.972;5.668;2023-07-31T14:03:38;21.8;72.5
78479;SHT31;67769;51.972;5.668;2023-07-31T14:06:08;21.8;72.8
78479;SHT31;67769;51.972;5.668;2023-07-31T14:08:37;21.8;73.1
78479;SHT31;67769;51.972;5.668;2023-07-31T14:11:07;21.8;72.6
78479;SHT31;67769;51.972;5.668;2023-07-31T14:13:37;21.7;72.9
78479;SHT31;67769;51.972;5.668;2023-07-31T14:16:06;21.7;72.9
78479;SHT31;67769;51.972;5.668;2023-07-31T14:18:38;21.7;72.9
78479;SHT31;67769;51.972;5.668;2023-07-31T14:21:09;21.7;73.3
78479;SHT31;67769;51.972;5.668;2023-07-31T14:23:39;21.7;73.5
78479;SHT31;67769;51.972;5.668;2023-07-31T14:26:09;21.7;73.9
78479;SHT31;67769;51.972;5.668;2023-07-31T14:28:39;21.7;73.5
78479;SHT31;67769;51.972;5.668;2023-07-31T14:31:09;21.7;73.0
78479;SHT31;67769;51.972;5.668;2023-07-31T14:33:39;21.7;73.5
78479;SHT31;67769;51.972;5.668;2023-07-31T14:36:09;21.7;73.3
78479;SHT31;67769;51.972;5.668;2023-07-31T14:38:38;21.7;73.7
78479;SHT31;67769;51.972;5.668;2023-07-31T14:41:08;21.7;73.3
78479;SHT31;67769;51.972;5.668;2023-07-31T14:43:37;21.7;73.2
78479;SHT31;67769;51.972;5.668;2023-07-31T14:46:09;21.7;73.3
78479;SHT31;67769;51.972;5.668;2023-07-31T14:48:38;21.6;73.6
78479;SHT31;67769;51.972;5.668;2023-07-31T14:51:09;21.6;73.7
78479;SHT31;67769;51.972;5.668;2023-07-31T14:53:38;21.6;73.8
78479;SHT31;67769;51.972;5.668;2023-07-31T14:56:10;21.6;73.6
78479;SHT31;67769;51.972;5.668;2023-07-31T14:58:40;21.6;73.6
78479;SHT31;67769;51.972;5.668;2023-07-31T15:01:09;21.6;73.8
78479;SHT31;67769;51.972;5.668;2023-07-31T15:03:39;21.6;73.4
78479;SHT31;67769;51.972;5.668;2023-07-31T15:06:09;21.6;73.7
78479;SHT31;67769;51.972;5.668;2023-07-31T15:08:40;21.6;73.6
78479;SHT31;67769;51.972;5.668;2023-07-31T15:11:10;21.6;73.4
78479;SHT31;67769;51.972;5.668;2023-07-31T15:13:40;21.6;73.3
78479;SHT31;67769;51.972;5.668;2023-07-31T15:16:10;21.6;73.2
78479;SHT31;67769;51.972;5.668;2023-07-31T15:18:42;21.6;73.4
78479;SHT31;67769;51.972;5.668;2023-07-31T15:21:12;21.5;73.5
78479;SHT31;67769;51.972;5.668;2023-07-31T15:23:41;21.5;73.5
78479;SHT31;67769;51.972;5.668;2023-07-31T15:26:11;21.5;73.6
78479;SHT31;67769;51.972;5.668;2023-07-31T15:28:40;21.5;73.8
78479;SHT31;67769;51.972;5.668;2023-07-31T15:31:10;21.5;73.8
78479;SHT31;67769;51.972;5.668;2023-07-31T15:33:40;21.5;74.3
78479;SHT31;67769;51.972;5.668;2023-07-31T15:36:09;21.5;73.9
78479;SHT31;67769;51.972;5.668;2023-07-31T15:38:39;21.5;74.1
78479;SHT31;67769;51.972;5.668;2023-07-31T15:41:09;21.5;73.7
78479;SHT31;67769;51.972;5.668;2023-07-31T15:43:38;21.5;74.1
78479;SHT31;67769;51.972;5.668;2023-07-31T15:46:08;21.5;73.9
78479;SHT31;67769;51.972;5.668;2023-07-31T15:48:37;21.5;74.3
78479;SHT31;67769;51.972;5.668;2023-07-31T15:51:07;21.4;74.2
78479;SHT31;67769;51.972;5.668;2023-07-31T15:53:37;21.4;74.0
78479;SHT31;67769;51.972;5.668;2023-07-31T15:56:07;21.4;74.0
78479;SHT31;67769;51.972;5.668;2023-07-31T15:58:36;21.4;74.3
78479;SHT31;67769;51.972;5.668;2023-07-31T16:01:06;21.4;74.2
78479;SHT31;67769;51.972;5.668;2023-07-31T16:03:36;21.4;74.0
78479;SHT31;67769;51.972;5.668;2023-07-31T16:06:05;21.4;73.9
78479;SHT31;67769;51.972;5.668;2023-07-31T16:08:37;21.3;74.1
78479;SHT31;67769;51.972;5.668;2023-07-31T16:11:09;21.3;74.4
78479;SHT31;67769;51.972;5.668;2023-07-31T16:13:39;21.3;74.3
78479;SHT31;67769;51.972;5.668;2023-07-31T16:16:08;21.3;74.0
78479;SHT31;67769;51.972;5.668;2023-07-31T16:18:38;21.3;74.1
78479;SHT31;67769;51.972;5.668;2023-07-31T16:21:08;21.3;73.9
78479;SHT31;67769;51.972;5.668;2023-07-31T16:23:38;21.2;73.9